createdAt,value
2018-09-14T00:00:19.537Z,12.70
2018-09-14T00:02:47.568Z,12.07
2018-09-14T00:05:15.605Z,12.23
2018-09-14T00:07:43.829Z,13.43
2018-09-14T00:10:12.174Z,14.30
2018-09-14T00:12:40.193Z,11.97
2018-09-14T00:15:08.696Z,14.27
2018-09-14T00:17:36.788Z,14.30
2018-09-14T00:20:05.900Z,12.23
2018-09-14T00:22:33.872Z,12.63
2018-09-14T00:25:01.850Z,12.43
2018-09-14T00:27:29.826Z,13.30
2018-09-14T00:29:58.204Z,14.80
2018-09-14T00:32:27.329Z,14.87
2018-09-14T00:34:55.866Z,14.90
2018-09-14T00:37:24.348Z,13.80
2018-09-14T00:39:52.366Z,13.90
2018-09-14T00:42:21.880Z,12.90
2018-09-14T00:44:50.632Z,14.17
2018-09-14T00:47:19.169Z,13.97
2018-09-14T00:49:47.245Z,13.80
2018-09-14T00:52:15.701Z,13.43
2018-09-14T00:54:43.743Z,15.03
2018-09-14T00:57:16.829Z,16.00
2018-09-14T00:59:44.873Z,16.17
2018-09-14T01:02:13.025Z,16.87
2018-09-14T01:04:41.534Z,15.70
2018-09-14T01:07:09.636Z,15.07
2018-09-14T01:09:37.520Z,15.10
2018-09-14T01:12:05.659Z,13.90
2018-09-14T01:14:33.762Z,14.43
2018-09-14T01:17:01.880Z,13.73
2018-09-14T01:19:29.943Z,15.03
2018-09-14T01:21:58.692Z,15.40
2018-09-14T01:24:26.805Z,13.30
2018-09-14T01:26:54.917Z,14.60
2018-09-14T01:29:23.192Z,16.60
2018-09-14T01:31:51.340Z,19.27
2018-09-14T01:34:19.484Z,17.03
2018-09-14T01:36:48.575Z,15.83
2018-09-14T01:39:16.734Z,18.27
2018-09-14T01:41:44.886Z,17.93
2018-09-14T01:44:13.079Z,17.77
2018-09-14T01:46:41.172Z,18.70
2018-09-14T01:49:09.140Z,19.10
2018-09-14T01:51:37.248Z,20.10
2018-09-14T01:54:13.117Z,21.23
2018-09-14T01:56:41.491Z,20.90
2018-09-14T01:59:09.511Z,19.27
2018-09-14T02:01:37.601Z,18.70
2018-09-14T02:04:05.844Z,19.33
2018-09-14T02:06:34.409Z,16.93
2018-09-14T02:09:02.497Z,18.60
2018-09-14T02:11:30.650Z,17.90
2018-09-14T02:13:58.583Z,18.60
2018-09-14T02:16:26.657Z,18.97
2018-09-14T02:18:54.780Z,18.03
2018-09-14T02:21:22.860Z,18.70
2018-09-14T02:23:52.937Z,18.90
2018-09-14T02:26:21.122Z,19.67
2018-09-14T02:28:49.121Z,21.13
2018-09-14T02:31:17.216Z,19.13
2018-09-14T02:33:45.400Z,21.80
2018-09-14T02:36:13.601Z,20.63
2018-09-14T02:38:41.706Z,22.67
2018-09-14T02:41:09.724Z,24.20
2018-09-14T02:43:37.745Z,20.73
2018-09-14T02:46:05.746Z,20.93
2018-09-14T02:48:35.633Z,27.07
2018-09-14T02:51:03.929Z,26.40
2018-09-14T02:53:31.993Z,24.70
2018-09-14T02:56:00.179Z,28.97
2018-09-14T02:58:28.225Z,32.80
2018-09-14T03:00:56.209Z,34.43
2018-09-14T03:03:24.581Z,34.20
2018-09-14T03:05:52.586Z,36.50
2018-09-14T03:08:20.681Z,33.20
2018-09-14T03:10:48.673Z,33.00
2018-09-14T03:13:17.165Z,34.17
2018-09-14T03:15:45.141Z,33.80
2018-09-14T03:18:13.274Z,34.50
2018-09-14T03:20:41.347Z,34.77
2018-09-14T03:23:09.571Z,31.77
2018-09-14T03:25:37.590Z,34.30
2018-09-14T03:28:05.817Z,32.43
2018-09-14T03:30:33.830Z,32.33
2018-09-14T03:33:01.841Z,29.33
2018-09-14T03:35:29.928Z,29.30
2018-09-14T03:37:58.025Z,27.30
2018-09-14T03:40:26.104Z,31.40
2018-09-14T03:42:54.198Z,29.10
2018-09-14T03:45:22.183Z,28.50
2018-09-14T03:47:50.185Z,30.67
2018-09-14T03:50:18.335Z,30.00
2018-09-14T03:52:46.397Z,29.10
2018-09-14T03:55:16.125Z,28.83
2018-09-14T03:57:44.113Z,29.40
2018-09-14T04:00:12.625Z,33.40
2018-09-14T04:02:40.760Z,34.37
2018-09-14T04:05:08.782Z,35.60
2018-09-14T04:07:36.858Z,33.67
2018-09-14T04:10:04.873Z,32.63
2018-09-14T04:12:32.917Z,31.13
2018-09-14T04:15:01.239Z,33.03
2018-09-14T04:17:29.310Z,33.17
2018-09-14T04:19:57.309Z,34.70
2018-09-14T04:22:25.360Z,31.30
2018-09-14T04:24:53.458Z,31.77
2018-09-14T04:27:21.489Z,31.20
2018-09-14T04:29:49.494Z,34.50
2018-09-14T04:32:17.699Z,34.63
2018-09-14T04:34:45.707Z,35.87
2018-09-14T04:37:13.818Z,32.10
2018-09-14T04:39:41.978Z,34.40
2018-09-14T04:42:10.037Z,30.63
2018-09-14T04:44:38.001Z,27.70
2018-09-14T04:47:06.183Z,29.80
2018-09-14T04:49:34.641Z,31.93
2018-09-14T04:52:02.891Z,30.83
2018-09-14T04:54:30.932Z,34.20
2018-09-14T04:56:59.187Z,29.97
2018-09-14T04:59:27.348Z,32.77
2018-09-14T05:01:55.458Z,28.77
2018-09-14T05:04:23.468Z,32.50
2018-09-14T05:06:51.481Z,29.37
2018-09-14T05:09:19.561Z,28.20
2018-09-14T05:11:47.630Z,25.73
2018-09-14T05:14:15.613Z,25.43
2018-09-14T05:16:43.681Z,24.83
2018-09-14T05:19:11.780Z,25.87
2018-09-14T05:21:39.984Z,27.10
2018-09-14T05:24:08.033Z,23.23
2018-09-14T05:26:36.133Z,24.10
2018-09-14T05:29:04.245Z,25.43
2018-09-14T05:31:32.241Z,21.93
2018-09-14T05:34:00.270Z,22.20
2018-09-14T05:36:28.361Z,24.20
2018-09-14T05:38:56.385Z,21.20
2018-09-14T05:41:24.385Z,21.50
2018-09-14T05:43:52.356Z,21.83
2018-09-14T05:46:20.373Z,19.30
2018-09-14T05:48:48.355Z,20.73
2018-09-14T05:51:16.306Z,20.33
2018-09-14T05:53:44.295Z,17.73
2018-09-14T05:56:12.293Z,16.67
2018-09-14T05:58:40.256Z,15.10
2018-09-14T06:01:08.255Z,15.47
2018-09-14T06:03:36.449Z,13.00
2018-09-14T06:06:04.373Z,11.77
2018-09-14T06:08:33.344Z,10.33
2018-09-14T06:11:01.445Z,10.33
2018-09-14T06:13:29.380Z,9.17
2018-09-14T06:15:57.427Z,8.80
2018-09-14T06:18:25.661Z,8.70
2018-09-14T06:20:53.690Z,8.60
2018-09-14T06:23:21.685Z,9.13
2018-09-14T06:25:49.660Z,8.83
2018-09-14T06:28:18.205Z,8.83
2018-09-14T06:30:46.343Z,8.63
2018-09-14T06:33:14.432Z,8.60
2018-09-14T06:35:42.414Z,8.10
2018-09-14T06:38:10.698Z,8.67
2018-09-14T06:40:39.228Z,9.23
2018-09-14T06:43:07.289Z,8.60
2018-09-14T06:45:35.295Z,8.50
2018-09-14T06:48:03.356Z,8.13
2018-09-14T06:50:31.389Z,8.60
2018-09-14T06:52:59.343Z,7.90
2018-09-14T06:55:27.369Z,8.97
2018-09-14T06:57:55.456Z,8.93
2018-09-14T07:00:23.625Z,8.53
2018-09-14T07:02:51.517Z,8.53
2018-09-14T07:05:19.512Z,9.20
2018-09-14T07:07:47.540Z,9.50
2018-09-14T07:10:15.492Z,9.70
2018-09-14T07:12:43.513Z,10.07
2018-09-14T07:15:11.663Z,9.37
2018-09-14T07:17:39.685Z,10.30
2018-09-14T07:20:07.626Z,9.50
2018-09-14T07:22:35.697Z,11.30
2018-09-14T07:25:03.697Z,9.30
2018-09-14T07:27:31.598Z,11.80
2018-09-14T07:29:59.564Z,10.97
2018-09-14T07:32:27.589Z,10.30
2018-09-14T07:34:55.644Z,11.70
2018-09-14T07:37:23.625Z,12.40
2018-09-14T07:39:51.611Z,11.90
2018-09-14T07:42:19.583Z,12.20
2018-09-14T07:44:47.597Z,14.10
2018-09-14T07:47:15.624Z,13.77
2018-09-14T07:49:43.660Z,12.90
2018-09-14T07:52:11.650Z,12.40
2018-09-14T07:54:39.619Z,13.57
2018-09-14T07:57:07.560Z,13.17
2018-09-14T07:59:35.673Z,13.20
2018-09-14T08:02:03.748Z,13.13
2018-09-14T08:04:31.756Z,13.30
2018-09-14T08:07:00.196Z,14.37
2018-09-14T08:09:28.190Z,14.37
2018-09-14T08:11:56.194Z,15.37
2018-09-14T08:14:24.193Z,15.20
2018-09-14T08:16:52.191Z,16.57
2018-09-14T08:19:20.212Z,16.37
2018-09-14T08:21:48.314Z,16.73
2018-09-14T08:24:16.217Z,17.43
2018-09-14T08:26:44.267Z,15.67
2018-09-14T08:29:12.377Z,15.60
2018-09-14T08:31:40.394Z,16.70
2018-09-14T08:34:08.402Z,15.77
2018-09-14T08:36:36.780Z,15.27
2018-09-14T08:39:08.550Z,15.80
2018-09-14T08:41:36.661Z,17.70
2018-09-14T08:44:04.802Z,16.70
2018-09-14T08:46:33.713Z,17.10
2018-09-14T08:49:01.954Z,18.03
2018-09-14T08:51:29.892Z,18.20
2018-09-14T08:53:57.897Z,16.53
2018-09-14T08:56:25.896Z,16.53
2018-09-14T08:58:53.931Z,16.90
2018-09-14T09:01:21.958Z,15.97
2018-09-14T09:03:49.957Z,15.63
2018-09-14T09:06:17.924Z,15.67
2018-09-14T09:08:45.916Z,17.53
2018-09-14T09:11:14.362Z,9.73
2018-09-14T09:13:42.404Z,10.97
2018-09-14T09:16:11.228Z,13.10
2018-09-14T09:18:39.262Z,13.67
2018-09-14T09:21:07.355Z,12.60
2018-09-14T09:23:35.491Z,12.90
2018-09-14T09:26:03.638Z,12.20
2018-09-14T09:28:31.688Z,13.87
2018-09-14T09:30:59.694Z,17.03
2018-09-14T09:33:27.712Z,15.23
2018-09-14T09:35:55.736Z,17.43
2018-09-14T09:38:23.758Z,17.20
2018-09-14T09:40:51.760Z,17.27
2018-09-14T09:43:19.806Z,19.73
2018-09-14T09:45:47.764Z,19.70
2018-09-14T09:48:15.781Z,18.90
2018-09-14T09:50:43.744Z,21.77
2018-09-14T09:53:11.845Z,21.77
2018-09-14T09:55:39.884Z,22.67
2018-09-14T09:58:08.313Z,23.30
2018-09-14T10:00:46.930Z,22.47
2018-09-14T10:03:16.608Z,24.60
2018-09-14T10:05:50.140Z,25.17
2018-09-14T10:08:18.295Z,23.87
2018-09-14T10:10:46.333Z,24.40
2018-09-14T10:13:14.438Z,24.80
2018-09-14T10:15:42.436Z,25.37
2018-09-14T10:18:10.471Z,24.30
2018-09-14T10:20:38.516Z,24.50
2018-09-14T10:23:06.580Z,26.30
2018-09-14T10:25:34.631Z,24.90
2018-09-14T10:28:02.689Z,24.90
2018-09-14T10:30:30.764Z,26.03
2018-09-14T10:32:58.837Z,26.77
2018-09-14T10:35:26.937Z,24.00
2018-09-14T10:37:55.075Z,25.83
2018-09-14T10:40:23.134Z,27.93
2018-09-14T10:42:51.514Z,27.47
2018-09-14T10:45:19.541Z,27.07
2018-09-14T10:47:47.571Z,26.30
2018-09-14T10:50:15.665Z,26.20
2018-09-14T10:52:43.763Z,25.30
2018-09-14T10:55:11.801Z,27.43
2018-09-14T10:57:39.841Z,26.07
2018-09-14T11:00:08.091Z,25.03
2018-09-14T11:02:36.106Z,24.10
2018-09-14T11:05:04.248Z,25.70
2018-09-14T11:07:32.422Z,24.83
2018-09-14T11:10:00.580Z,24.10
2018-09-14T11:12:28.641Z,21.83
2018-09-14T11:14:56.602Z,22.73
2018-09-14T11:17:24.705Z,22.20
2018-09-14T11:19:52.717Z,22.77
2018-09-14T11:22:20.721Z,22.20
2018-09-14T11:24:48.908Z,19.57
2018-09-14T11:27:16.926Z,20.83
2018-09-14T11:29:44.938Z,19.20
2018-09-14T11:32:12.954Z,19.57
2018-09-14T11:34:40.965Z,20.17
2018-09-14T11:37:08.972Z,17.60
2018-09-14T11:39:37.081Z,18.50
2018-09-14T11:42:05.122Z,19.00
2018-09-14T11:44:33.078Z,17.57
2018-09-14T11:47:01.079Z,19.70
2018-09-14T11:49:29.081Z,18.90
2018-09-14T11:51:57.808Z,21.47
2018-09-14T11:54:26.742Z,21.10
2018-09-14T11:56:54.766Z,20.67
2018-09-14T11:59:22.821Z,18.27
2018-09-14T12:01:50.888Z,19.13
2018-09-14T12:04:19.014Z,20.60
2018-09-14T12:06:47.830Z,21.30
2018-09-14T12:09:15.884Z,19.83
2018-09-14T12:11:43.953Z,18.93
2018-09-14T12:14:12.056Z,18.43
2018-09-14T12:16:40.066Z,18.13
2018-09-14T12:19:08.023Z,16.20
2018-09-14T12:21:35.949Z,17.73
2018-09-14T12:24:04.002Z,19.07
2018-09-14T12:26:32.065Z,17.53
2018-09-14T12:29:00.019Z,17.50
2018-09-14T12:31:28.055Z,14.00
2018-09-14T12:33:56.078Z,13.97
2018-09-14T12:36:24.107Z,15.10
2018-09-14T12:38:52.035Z,16.20
2018-09-14T12:41:20.054Z,16.13
2018-09-14T12:43:48.092Z,17.00
2018-09-14T12:46:16.004Z,18.20
2018-09-14T12:48:44.125Z,18.03
2018-09-14T12:51:12.074Z,18.90
2018-09-14T12:53:40.103Z,19.43
2018-09-14T12:56:08.216Z,18.40
2018-09-14T12:58:36.244Z,19.83
2018-09-14T13:01:04.332Z,19.80
2018-09-14T13:03:32.315Z,17.43
2018-09-14T13:06:00.368Z,18.43
2018-09-14T13:08:28.427Z,18.47
2018-09-14T13:10:57.006Z,18.63
2018-09-14T13:13:25.128Z,18.17
2018-09-14T13:15:53.146Z,18.00
2018-09-14T13:18:21.120Z,16.87
2018-09-14T13:20:49.642Z,14.57
2018-09-14T13:23:17.551Z,14.90
2018-09-14T13:25:45.590Z,14.33
2018-09-14T13:28:13.565Z,16.27
2018-09-14T13:30:41.558Z,15.60
2018-09-14T13:33:09.516Z,14.67
2018-09-14T13:35:37.649Z,15.43
2018-09-14T13:38:05.597Z,15.43
2018-09-14T13:40:33.581Z,13.80
2018-09-14T13:43:01.481Z,13.97
2018-09-14T13:45:29.453Z,14.90
2018-09-14T13:47:57.500Z,16.00
2018-09-14T13:50:25.697Z,15.20
2018-09-14T13:52:53.786Z,14.53
2018-09-14T13:55:21.754Z,14.43
2018-09-14T13:57:49.755Z,13.50
2018-09-14T14:00:17.732Z,14.10
2018-09-14T14:02:45.864Z,14.73
2018-09-14T14:05:14.890Z,12.73
2018-09-14T14:07:42.923Z,13.10
2018-09-14T14:10:10.852Z,14.10
2018-09-14T14:12:39.704Z,13.33
2018-09-14T14:15:07.621Z,14.00
2018-09-14T14:17:35.756Z,16.13
2018-09-14T14:20:03.932Z,16.23
2018-09-14T14:22:31.909Z,14.23
2018-09-14T14:24:59.914Z,14.73
2018-09-14T14:27:28.419Z,16.13
2018-09-14T14:29:57.426Z,14.67
2018-09-14T14:32:25.420Z,11.87
2018-09-14T14:34:53.764Z,11.73
2018-09-14T14:37:21.754Z,13.13
2018-09-14T14:39:50.801Z,12.43
2018-09-14T14:42:18.697Z,12.80
2018-09-14T14:44:46.648Z,13.50
2018-09-14T14:47:14.785Z,13.93
2018-09-14T14:49:42.777Z,13.40
2018-09-14T14:52:11.713Z,14.10
2018-09-14T14:54:39.698Z,13.70
2018-09-14T14:57:07.765Z,14.83
2018-09-14T14:59:35.765Z,12.70
2018-09-14T15:02:03.808Z,13.97
2018-09-14T15:04:31.778Z,12.47
2018-09-14T15:07:00.746Z,15.10
2018-09-14T15:09:28.872Z,15.37
2018-09-14T15:11:56.922Z,13.70
2018-09-14T15:14:25.761Z,14.50
2018-09-14T15:16:54.745Z,13.60
2018-09-14T15:19:23.179Z,13.40
2018-09-14T15:21:51.117Z,12.20
2018-09-14T15:24:19.165Z,14.20
2018-09-14T15:26:47.344Z,12.80
2018-09-14T15:29:15.253Z,13.33
2018-09-14T15:31:43.368Z,11.90
2018-09-14T15:34:11.393Z,12.60
2018-09-14T15:36:39.348Z,11.70
2018-09-14T15:39:10.877Z,10.00
2018-09-14T15:41:38.754Z,10.63
2018-09-14T15:44:06.865Z,9.40
2018-09-14T15:46:34.957Z,9.37
2018-09-14T15:49:02.967Z,11.63
2018-09-14T15:51:31.366Z,10.33
2018-09-14T15:53:59.351Z,11.77
2018-09-14T15:56:27.313Z,11.60
2018-09-14T15:58:55.352Z,13.47
2018-09-14T16:01:23.346Z,11.80
2018-09-14T16:03:51.273Z,10.93
2018-09-14T16:06:19.264Z,12.40
2018-09-14T16:08:47.548Z,11.80
2018-09-14T16:11:15.569Z,10.07
2018-09-14T16:13:43.568Z,10.47
2018-09-14T16:16:11.494Z,8.70
2018-09-14T16:18:39.470Z,10.30
2018-09-14T16:21:07.409Z,10.67
2018-09-14T16:23:35.577Z,10.70
2018-09-14T16:26:03.496Z,10.73
2018-09-14T16:28:31.390Z,9.90
2018-09-14T16:30:59.394Z,8.83
2018-09-14T16:33:27.452Z,7.83
2018-09-14T16:35:55.498Z,8.63
2018-09-14T16:38:24.504Z,10.50
2018-09-14T16:40:52.482Z,8.53
2018-09-14T16:43:20.505Z,10.60
2018-09-14T16:45:48.477Z,10.93
2018-09-14T16:48:17.580Z,9.00
2018-09-14T16:50:45.537Z,9.87
2018-09-14T16:53:13.523Z,8.40
2018-09-14T16:55:41.784Z,9.50
2018-09-14T16:58:09.740Z,9.70
2018-09-14T17:00:37.737Z,11.77
2018-09-14T17:03:05.754Z,11.90
2018-09-14T17:05:33.701Z,15.80
2018-09-14T17:08:01.854Z,13.97
2018-09-14T17:10:29.844Z,11.63
2018-09-14T17:12:58.313Z,11.27
2018-09-14T17:15:26.424Z,10.40
2018-09-14T17:17:54.452Z,12.33
2018-09-14T17:20:22.429Z,9.50
2018-09-14T17:22:50.557Z,9.90
2018-09-14T17:25:18.661Z,10.47
2018-09-14T17:27:46.617Z,12.00
2018-09-14T17:30:14.705Z,11.63
2018-09-14T17:32:42.886Z,12.47
2018-09-14T17:35:10.961Z,11.30
2018-09-14T17:37:38.857Z,11.80
2018-09-14T17:40:06.817Z,11.60
2018-09-14T17:42:34.760Z,12.20
2018-09-14T17:45:02.728Z,11.73
2018-09-14T17:47:30.715Z,10.43
2018-09-14T17:49:58.870Z,11.57
2018-09-14T17:52:26.970Z,11.67
2018-09-14T17:54:54.964Z,11.73
2018-09-14T17:57:23.658Z,10.63
2018-09-14T17:59:51.592Z,11.73
2018-09-14T18:02:19.549Z,11.80
2018-09-14T18:04:47.741Z,11.07
2018-09-14T18:07:15.742Z,12.23
2018-09-14T18:09:43.664Z,12.60
2018-09-14T18:12:11.729Z,13.20
2018-09-14T18:14:39.762Z,13.17
2018-09-14T18:17:08.081Z,11.60
2018-09-14T18:19:36.049Z,12.03
2018-09-14T18:22:04.097Z,13.37
2018-09-14T18:24:32.037Z,12.73
2018-09-14T18:27:00.083Z,12.00
2018-09-14T18:29:28.567Z,12.87
2018-09-14T18:31:56.468Z,12.30
2018-09-14T18:34:24.415Z,13.20
2018-09-14T18:36:52.429Z,13.13
2018-09-14T18:39:20.550Z,12.67
2018-09-14T18:41:48.620Z,12.03
2018-09-14T18:44:16.698Z,11.40
2018-09-14T18:46:44.803Z,11.87
2018-09-14T18:49:12.953Z,11.80
2018-09-14T18:51:40.964Z,12.97
2018-09-14T18:54:09.024Z,10.13
2018-09-14T18:56:37.186Z,10.90
2018-09-14T18:59:05.329Z,10.40
2018-09-14T19:01:33.332Z,12.50
2018-09-14T19:04:01.300Z,13.13
2018-09-14T19:06:29.409Z,12.40
2018-09-14T19:08:58.205Z,11.90
2018-09-14T19:11:26.234Z,12.07
2018-09-14T19:13:54.252Z,12.57
2018-09-14T19:16:22.637Z,12.40
2018-09-14T19:18:50.906Z,12.60
2018-09-14T19:21:19.219Z,10.43
2018-09-14T19:23:47.184Z,11.50
2018-09-14T19:26:17.073Z,12.47
2018-09-14T19:28:45.040Z,12.90
2018-09-14T19:31:13.101Z,13.10
2018-09-14T19:33:41.147Z,11.63
2018-09-14T19:36:09.322Z,13.63
2018-09-14T19:38:37.535Z,14.17
2018-09-14T19:41:05.464Z,12.83
2018-09-14T19:43:33.571Z,12.90
2018-09-14T19:46:01.513Z,14.47
2018-09-14T19:48:29.578Z,14.13
2018-09-14T19:50:57.548Z,14.00
2018-09-14T19:53:25.539Z,14.43
2018-09-14T19:55:53.437Z,14.97
2018-09-14T19:58:21.419Z,16.10
2018-09-14T20:00:49.389Z,13.77
2018-09-14T20:03:17.481Z,15.27
2018-09-14T20:05:45.514Z,16.97
2018-09-14T20:08:13.461Z,18.27
2018-09-14T20:10:41.427Z,16.73
2018-09-14T20:13:09.360Z,17.67
2018-09-14T20:15:37.614Z,14.67
2018-09-14T20:18:05.614Z,15.10
2018-09-14T20:20:33.626Z,13.70
2018-09-14T20:23:01.756Z,13.47
2018-09-14T20:25:29.690Z,15.47
2018-09-14T20:27:57.775Z,13.50
2018-09-14T20:30:25.827Z,14.67
2018-09-14T20:32:53.796Z,17.30
2018-09-14T20:35:21.786Z,17.63
2018-09-14T20:37:49.789Z,17.20
2018-09-14T20:40:17.757Z,18.20
2018-09-14T20:42:45.885Z,20.40
2018-09-14T20:45:13.891Z,19.90
2018-09-14T20:47:41.855Z,19.40
2018-09-14T20:50:10.145Z,17.37
2018-09-14T20:52:38.034Z,18.40
2018-09-14T20:55:06.050Z,18.60
2018-09-14T20:57:34.033Z,18.20
2018-09-14T21:00:02.092Z,19.67
2018-09-14T21:02:30.075Z,18.17
2018-09-14T21:04:58.080Z,20.93
2018-09-14T21:07:26.033Z,19.60
2018-09-14T21:09:54.060Z,19.20
2018-09-14T21:12:28.574Z,18.60
2018-09-14T21:14:56.608Z,19.03
2018-09-14T21:17:24.526Z,17.10
2018-09-14T21:19:52.670Z,18.27
2018-09-14T21:22:20.575Z,19.83
2018-09-14T21:24:48.500Z,17.70
2018-09-14T21:27:16.462Z,17.40
2018-09-14T21:29:45.272Z,15.60
2018-09-14T21:32:13.193Z,17.37
2018-09-14T21:34:41.152Z,19.20
2018-09-14T21:37:09.953Z,19.17
2018-09-14T21:39:37.972Z,18.70
2018-09-14T21:42:05.970Z,19.23
2018-09-14T21:44:33.910Z,24.00
2018-09-14T21:47:02.005Z,27.03
2018-09-14T21:49:29.985Z,25.30
2018-09-14T21:51:57.957Z,19.30
2018-09-14T21:54:26.145Z,19.20
2018-09-14T21:56:54.117Z,19.70
2018-09-14T21:59:22.133Z,19.13
2018-09-14T22:01:50.097Z,18.80
2018-09-14T22:04:18.008Z,20.43
2018-09-14T22:06:45.950Z,19.60
2018-09-14T22:09:13.888Z,20.77
2018-09-14T22:11:41.868Z,17.97
2018-09-14T22:14:09.763Z,20.07
2018-09-14T22:16:37.663Z,18.17
2018-09-14T22:19:05.717Z,20.13
2018-09-14T22:21:33.657Z,21.13
2018-09-14T22:24:01.626Z,23.20
2018-09-14T22:26:29.568Z,17.53
2018-09-14T22:28:57.553Z,17.50
2018-09-14T22:31:25.455Z,19.50
2018-09-14T22:33:53.463Z,21.40
2018-09-14T22:36:21.361Z,22.80
2018-09-14T22:38:49.298Z,17.23
2018-09-14T22:41:17.341Z,17.63
2018-09-14T22:43:46.408Z,17.50
2018-09-14T22:46:14.413Z,20.77
2018-09-14T22:48:42.367Z,21.50
2018-09-14T22:51:10.298Z,22.27
2018-09-14T22:53:38.229Z,17.60
2018-09-14T22:56:06.157Z,20.47
2018-09-14T22:58:34.093Z,18.93
2018-09-14T23:01:07.718Z,20.40
2018-09-14T23:03:35.837Z,22.73
2018-09-14T23:06:03.847Z,21.30
2018-09-14T23:08:31.767Z,19.20
2018-09-14T23:10:59.654Z,20.97
2018-09-14T23:13:27.635Z,20.80
2018-09-14T23:16:00.366Z,23.07
2018-09-14T23:18:29.112Z,22.73
2018-09-14T23:20:57.400Z,23.20
2018-09-14T23:23:25.475Z,19.97
2018-09-14T23:25:56.790Z,21.33
2018-09-14T23:28:24.809Z,21.40
2018-09-14T23:30:52.736Z,20.87
2018-09-14T23:33:20.653Z,23.23
2018-09-14T23:35:48.564Z,22.07
2018-09-14T23:38:16.507Z,20.03
2018-09-14T23:40:44.422Z,18.30
2018-09-14T23:43:12.387Z,18.90
2018-09-14T23:45:40.377Z,19.60
2018-09-14T23:48:08.311Z,19.97
2018-09-14T23:50:36.345Z,19.87
2018-09-14T23:53:04.244Z,23.00
2018-09-14T23:55:32.151Z,20.50
2018-09-14T23:58:00.084Z,21.77
